A- A+ FrançaisEnglishEspañol中国

Services sur Internet Soldes sur Internet Des idées de cadeaux Météo Météo aéro

La météo à : Autours de vous Perpignan-RivesalterTarbes-Lourdes-PyrénéesVillacoublay-Velizy Ajaccio-Napoléon-Bonaparte

manche à air

La météo aéronautique pour les pilotes, la préparation du vol avec les METAR (METeorological Aerodrome Report, message d'observation des conditions météorologiques pour l'aviation) et Les TAF (Terminal Aerodrome Forecast : message de prévision à court terme des conditions météorologiques pour l'aviation). Et les autres ressources comme les VAC (Visual Approch Chart) et les NOTAM (Notice To Airman) pour préprer les vols.

Aéroport Oxford (Royaume-Uni) / OACI EGTK/ IATA OXF

L'altitude de l'aéroport Oxford est de 82 m = 269 ft. Il est situé à proximité de Kidlington (Royaume-Uni). La météo générale à 5 jours est disponible pour Oxfordshire situé à 4.8 km.

METAR de l'aéroport Oxford - EGTK

EGTK 121650Z 23012KT 6000 DZ SCT007 BKN010 08/08 Q0977

Décodage du METAR de l'aéroport Oxford (GB)

METAR émis par EGTK le jeudi 12 décembre 2019 à 16:50 heure TU. Attention ce METAR est obsolète car il a été émis il y a 14 heure et 26 minutes.

La visibilité est de 6 km = 3.7 sm.

La température est de 8°C = 46 °F et le point rosée est de 8°C = 46 °F . Ce qui correspond à 100% d'humidité relative.

Le QNH est de 977 hPa = 28.85 inHg

Vent de 12 kt = 22 km/h, orienté à 230°.

Nuages : Nuages épars à 700 ft = 210 mètres. Couverture nuageuse fragmentée à 1000 ft = 300 mètres.

DZ

TAF de l'aéroport Oxford - EGTK

EGTK 111102Z 1112/1121 20010KT 9999 FEW030

EGTK 111102Z 1112/1121 20010KT 9999 quelques nuages à 030

Aéroport à proximité de Oxford

Météo générale à 5 jours à Oxfordshire (4.8 km)Aéroport Brize Norton (21 km)Aéroport Chalgrove (24 km)Aéroport Aylesbury Thame (27 km)Aéroport Turweston (27 km)Aéroport Benson (29 km)Aéroport Fairford (37 km)

Vue aérienne de l'aéroport Oxford

NOTAM de l'aéroport Oxford

Les NOTAM sont fournis sans aucune garantie de leur actualité. Le pilote est le seul responsable de la vérification de sa validité avant de l'utiliser opérationnellement pour préparer un vol ou l'utiliser lors de sa navigation.

Pas de NOTAM

Sources des données